Time;durP1;ratioP1;P1;durP2;ratioP2;P2;SDS_P1;SDS_P2;PMS_P1;PMS_P2;Temp;Humidity;BMP_temperature;BMP_pressure;BME280_temperature;BME280_humidity;BME280_pressure;Samples;Min_cycle;Max_cycle;Signal;HPM_P1;HPM_P2
2021/12/12 00:02:10;;;;;;;32.42;12.45;;;;;;;;;;5052201;28;20049;-81
2021/12/12 00:04:38;;;;;;;32.95;13.35;;;;;;;;;;5050692;28;20057;-82
2021/12/12 00:07:10;;;;;;;37.45;13.15;;;;;;;;;;5052909;28;20485;-81
2021/12/12 00:09:42;;;;;;;36.10;13.48;;;;;;;;;;5053972;28;20068;-80
2021/12/12 00:12:12;;;;;;;39.72;12.45;;;;;;;;;;5035076;28;20064;-81
2021/12/12 00:14:38;;;;;;;41.95;13.00;;;;;;;;;;5042642;28;20500;-81
2021/12/12 00:17:06;;;;;;;35.70;13.50;;;;;;;;;;5051138;28;20089;-81
2021/12/12 00:19:35;;;;;;;34.67;12.45;;;;;;;;;;5033102;28;20532;-81
2021/12/12 00:22:03;;;;;;;30.50;11.88;;;;;;;;;;5047607;28;20038;-81
2021/12/12 00:24:30;;;;;;;32.10;12.52;;;;;;;;;;5039712;28;20072;-80
2021/12/12 00:26:57;;;;;;;31.35;11.85;;;;;;;;;;5038698;28;20054;-82
2021/12/12 00:29:24;;;;;;;24.83;11.20;;;;;;;;;;5041342;28;20104;-82
2021/12/12 00:31:52;;;;;;;36.45;11.52;;;;;;;;;;5050940;28;20057;-81
2021/12/12 00:34:19;;;;;;;33.63;11.98;;;;;;;;;;5051121;28;20767;-82
2021/12/12 00:36:45;;;;;;;32.10;11.60;;;;;;;;;;5054019;28;20500;-81
2021/12/12 00:39:17;;;;;;;29.85;11.75;;;;;;;;;;5051481;28;20080;-82
2021/12/12 00:41:43;;;;;;;36.38;12.60;;;;;;;;;;5054091;28;20053;-81
2021/12/12 00:44:11;;;;;;;30.83;10.45;;;;;;;;;;5052854;28;20085;-82
2021/12/12 00:46:38;;;;;;;31.65;12.05;;;;;;;;;;5053469;28;20107;-81
2021/12/12 00:49:04;;;;;;;30.27;11.43;;;;;;;;;;5054126;28;20527;-80
2021/12/12 00:51:32;;;;;;;33.88;11.95;;;;;;;;;;5072065;28;20107;-81
2021/12/12 00:53:59;;;;;;;33.65;11.50;;;;;;;;;;5051873;28;20081;-82
2021/12/12 00:56:25;;;;;;;31.42;11.60;;;;;;;;;;5050922;28;20104;-80
2021/12/12 00:58:52;;;;;;;33.92;11.52;;;;;;;;;;5052677;28;20633;-81
2021/12/12 01:01:22;;;;;;;28.10;9.25;;;;;;;;;;5034821;28;20042;-82
2021/12/12 01:03:51;;;;;;;31.90;9.73;;;;;;;;;;5038539;28;20591;-81
2021/12/12 01:06:19;;;;;;;34.47;10.18;;;;;;;;;;5055793;28;20088;-80
2021/12/12 01:08:46;;;;;;;27.15;9.15;;;;;;;;;;5066852;28;20034;-81
2021/12/12 01:11:14;;;;;;;25.80;9.82;;;;;;;;;;5052021;28;20057;-81
2021/12/12 01:13:41;;;;;;;22.02;7.55;;;;;;;;;;5049284;28;20333;-81
2021/12/12 01:16:17;;;;;;;28.88;9.73;;;;;;;;;;5048273;28;20105;-82
2021/12/12 01:18:46;;;;;;;27.20;9.30;;;;;;;;;;5033019;28;20113;-82
2021/12/12 01:21:15;;;;;;;28.90;9.35;;;;;;;;;;5032981;28;20038;-81
2021/12/12 01:23:49;;;;;;;28.58;9.05;;;;;;;;;;5038113;28;20112;-81
2021/12/12 01:26:16;;;;;;;26.55;9.45;;;;;;;;;;5052227;28;20084;-81
2021/12/12 01:28:43;;;;;;;26.00;9.35;;;;;;;;;;5049297;28;20057;-82
2021/12/12 01:31:11;;;;;;;25.92;9.20;;;;;;;;;;5049698;28;20112;-81
2021/12/12 01:33:38;;;;;;;28.13;9.35;;;;;;;;;;5050013;28;20076;-81
2021/12/12 01:36:06;;;;;;;30.85;9.38;;;;;;;;;;5043188;28;20053;-81
2021/12/12 01:38:53;;;;;;;23.60;8.25;;;;;;;;;;5042344;28;20045;-80
2021/12/12 01:41:24;;;;;;;19.38;7.38;;;;;;;;;;5053263;28;20509;-80
2021/12/12 01:43:53;;;;;;;30.10;8.73;;;;;;;;;;5042836;28;20527;-81
2021/12/12 01:46:25;;;;;;;31.40;9.70;;;;;;;;;;5049595;28;20053;-81
2021/12/12 01:49:05;;;;;;;25.88;7.70;;;;;;;;;;5040070;28;20795;-82
2021/12/12 01:51:31;;;;;;;27.90;8.48;;;;;;;;;;5045890;28;20088;-80
2021/12/12 01:54:00;;;;;;;32.72;7.97;;;;;;;;;;5034049;28;20509;-81
2021/12/12 01:56:32;;;;;;;31.63;8.40;;;;;;;;;;5038677;28;20050;-80
2021/12/12 01:59:01;;;;;;;29.48;8.82;;;;;;;;;;5047807;28;20080;-81
2021/12/12 02:01:30;;;;;;;28.35;10.45;;;;;;;;;;5039534;28;20103;-81
2021/12/12 02:04:02;;;;;;;26.48;8.43;;;;;;;;;;5045852;28;20087;-80
2021/12/12 02:06:29;;;;;;;31.60;9.20;;;;;;;;;;5040166;28;20504;-81
2021/12/12 02:08:56;;;;;;;24.20;8.85;;;;;;;;;;5037919;28;20573;-81
2021/12/12 02:11:25;;;;;;;26.27;8.68;;;;;;;;;;5037614;28;20042;-81
2021/12/12 02:13:54;;;;;;;29.33;9.18;;;;;;;;;;5047701;28;20053;-80
2021/12/12 02:16:21;;;;;;;28.85;8.57;;;;;;;;;;5049924;28;20042;-81
2021/12/12 02:18:51;;;;;;;26.13;9.18;;;;;;;;;;5032531;28;20061;-81
2021/12/12 02:21:25;;;;;;;28.40;8.25;;;;;;;;;;5041023;28;20231;-81
2021/12/12 02:37:40;;;;;;;29.50;9.70;;;;;;;;;;5046892;28;20480;-80
2021/12/12 02:40:10;;;;;;;33.30;9.25;;;;;;;;;;5047186;28;20116;-80
2021/12/12 02:42:37;;;;;;;24.95;10.60;;;;;;;;;;5036839;28;20057;-81
2021/12/12 02:45:07;;;;;;;26.80;9.65;;;;;;;;;;5047477;28;20135;-81
2021/12/12 02:47:34;;;;;;;38.17;10.25;;;;;;;;;;5048205;28;20061;-80
2021/12/12 02:50:11;;;;;;;27.35;9.70;;;;;;;;;;5048027;28;20068;-81
2021/12/12 02:52:38;;;;;;;29.33;10.02;;;;;;;;;;5042846;28;20237;-80
2021/12/12 02:55:14;;;;;;;33.92;10.18;;;;;;;;;;5047437;28;20093;-81
2021/12/12 02:57:40;;;;;;;28.70;10.77;;;;;;;;;;5040120;28;20115;-81
2021/12/12 03:00:08;;;;;;;33.00;10.43;;;;;;;;;;5048303;28;20053;-80
2021/12/12 03:02:43;;;;;;;27.63;10.75;;;;;;;;;;5042754;28;20081;-80
2021/12/12 03:05:09;;;;;;;35.30;12.02;;;;;;;;;;5040481;28;20054;-80
2021/12/12 03:07:36;;;;;;;31.35;10.85;;;;;;;;;;5040286;28;20090;-81
2021/12/12 03:10:03;;;;;;;35.70;12.18;;;;;;;;;;5045718;28;20108;-80
2021/12/12 03:12:33;;;;;;;35.10;11.50;;;;;;;;;;5045403;28;20065;-81
2021/12/12 03:15:05;;;;;;;28.90;11.23;;;;;;;;;;5043906;28;20053;-81
2021/12/12 03:17:32;;;;;;;34.35;12.45;;;;;;;;;;5035175;28;20145;-81
2021/12/12 03:20:01;;;;;;;31.63;11.65;;;;;;;;;;5047619;28;20054;-81
2021/12/12 03:22:27;;;;;;;34.00;11.55;;;;;;;;;;5040104;28;20045;-80
2021/12/12 03:24:55;;;;;;;27.67;11.27;;;;;;;;;;5036350;28;20097;-80
2021/12/12 03:27:22;;;;;;;32.15;11.13;;;;;;;;;;5042240;28;20515;-80
2021/12/12 03:29:49;;;;;;;32.60;11.15;;;;;;;;;;5047926;28;20053;-81
2021/12/12 03:32:17;;;;;;;28.98;11.43;;;;;;;;;;5044540;28;20077;-82
2021/12/12 03:34:52;;;;;;;35.92;11.82;;;;;;;;;;5045537;28;20627;-81
2021/12/12 03:37:20;;;;;;;32.72;12.55;;;;;;;;;;5037466;28;20060;-81
2021/12/12 03:39:49;;;;;;;28.40;12.25;;;;;;;;;;5044779;28;20103;-81
2021/12/12 03:42:18;;;;;;;32.35;12.40;;;;;;;;;;5035515;28;20053;-81
2021/12/12 03:44:45;;;;;;;36.83;12.55;;;;;;;;;;5043517;28;20049;-81
2021/12/12 03:47:20;;;;;;;30.55;12.05;;;;;;;;;;5040281;28;20132;-81
2021/12/12 03:49:47;;;;;;;34.63;13.10;;;;;;;;;;5046324;28;20064;-81
2021/12/12 03:52:15;;;;;;;35.30;12.57;;;;;;;;;;5047087;28;20108;-81
2021/12/12 03:54:42;;;;;;;35.72;13.05;;;;;;;;;;5041956;28;20069;-81
2021/12/12 03:57:09;;;;;;;35.83;13.38;;;;;;;;;;5049176;28;20064;-80
2021/12/12 03:59:35;;;;;;;30.08;13.95;;;;;;;;;;5050368;28;20099;-81
2021/12/12 04:02:03;;;;;;;34.75;12.20;;;;;;;;;;5034355;28;20073;-82
2021/12/12 04:04:31;;;;;;;40.38;14.57;;;;;;;;;;5047819;28;20049;-80
2021/12/12 04:06:59;;;;;;;42.85;14.88;;;;;;;;;;5034796;28;20069;-81
2021/12/12 04:09:26;;;;;;;40.95;14.25;;;;;;;;;;5049702;28;20128;-80
2021/12/12 04:11:57;;;;;;;40.60;14.00;;;;;;;;;;5041340;28;20054;-81
2021/12/12 04:14:24;;;;;;;36.58;13.40;;;;;;;;;;5041590;28;20513;-80
2021/12/12 04:16:53;;;;;;;35.70;14.88;;;;;;;;;;5045294;28;20586;-81
2021/12/12 04:19:20;;;;;;;45.05;14.85;;;;;;;;;;5041016;28;20440;-81
2021/12/12 04:21:46;;;;;;;38.42;15.30;;;;;;;;;;5049515;28;20064;-80
2021/12/12 04:24:24;;;;;;;39.78;15.73;;;;;;;;;;5045872;28;20091;-80
2021/12/12 04:26:50;;;;;;;47.67;16.25;;;;;;;;;;5046367;28;20108;-80
2021/12/12 04:29:19;;;;;;;45.72;15.88;;;;;;;;;;5046748;28;20120;-81
2021/12/12 04:31:49;;;;;;;44.35;16.70;;;;;;;;;;5043385;28;20525;-81
2021/12/12 04:34:26;;;;;;;50.28;16.90;;;;;;;;;;5040633;28;20255;-82
2021/12/12 04:36:54;;;;;;;44.05;18.15;;;;;;;;;;5049251;28;20122;-80
2021/12/12 04:39:22;;;;;;;48.63;17.17;;;;;;;;;;5045955;28;20558;-82
2021/12/12 04:41:50;;;;;;;46.08;16.52;;;;;;;;;;5063845;28;20595;-81
2021/12/12 04:44:24;;;;;;;44.83;16.75;;;;;;;;;;5042796;28;20085;-81
2021/12/12 04:49:56;;;;;;;42.70;17.17;;;;;;;;;;5042496;28;20107;-81
2021/12/12 04:52:30;;;;;;;46.28;16.27;;;;;;;;;;5043520;28;20057;-80
2021/12/12 04:54:59;;;;;;;38.05;16.02;;;;;;;;;;5045479;28;20079;-80
2021/12/12 04:57:31;;;;;;;43.67;16.00;;;;;;;;;;5031727;28;20839;-80
2021/12/12 05:00:07;;;;;;;48.25;16.73;;;;;;;;;;5049035;28;20049;-81
2021/12/12 05:02:37;;;;;;;42.17;16.50;;;;;;;;;;5048082;28;20045;-80
2021/12/12 05:05:14;;;;;;;47.55;18.98;;;;;;;;;;5043839;28;20042;-81
2021/12/12 05:07:53;;;;;;;54.58;17.48;;;;;;;;;;5039378;28;20198;-80
2021/12/12 05:10:36;;;;;;;49.53;18.05;;;;;;;;;;5043456;28;20054;-81
2021/12/12 05:13:19;;;;;;;51.38;18.75;;;;;;;;;;5042548;28;20100;-81
2021/12/12 05:15:53;;;;;;;48.53;17.58;;;;;;;;;;5042330;28;20057;-80
2021/12/12 05:18:29;;;;;;;42.45;16.60;;;;;;;;;;5041295;28;20053;-80
2021/12/12 05:20:58;;;;;;;46.42;17.52;;;;;;;;;;5047496;28;20073;-80
2021/12/12 05:23:26;;;;;;;44.85;17.45;;;;;;;;;;5055138;28;20555;-80
2021/12/12 05:25:55;;;;;;;42.25;17.20;;;;;;;;;;5040263;28;20084;-81
2021/12/12 05:28:23;;;;;;;48.10;17.65;;;;;;;;;;5043819;28;20081;-80
2021/12/12 05:30:50;;;;;;;52.40;18.90;;;;;;;;;;5047750;28;20357;-80
2021/12/12 05:33:17;;;;;;;53.78;18.63;;;;;;;;;;5039637;28;20054;-81
2021/12/12 05:35:44;;;;;;;50.05;17.77;;;;;;;;;;5035935;28;20057;-81
2021/12/12 05:38:10;;;;;;;55.80;19.00;;;;;;;;;;5041708;28;20153;-80
2021/12/12 05:40:40;;;;;;;53.28;19.27;;;;;;;;;;5038708;28;20158;-79
2021/12/12 05:43:07;;;;;;;58.13;19.55;;;;;;;;;;5046673;28;20060;-80
2021/12/12 05:45:34;;;;;;;63.20;21.17;;;;;;;;;;5038111;28;20119;-80
2021/12/12 05:48:02;;;;;;;57.22;20.60;;;;;;;;;;5043014;28;20057;-80
2021/12/12 05:50:29;;;;;;;60.42;20.33;;;;;;;;;;5039524;28;20054;-80
2021/12/12 05:52:55;;;;;;;57.38;19.95;;;;;;;;;;5040670;28;20077;-81
2021/12/12 05:55:23;;;;;;;55.67;18.27;;;;;;;;;;5039814;28;20118;-81
2021/12/12 05:57:54;;;;;;;66.82;22.10;;;;;;;;;;5041339;28;20168;-80
2021/12/12 06:00:26;;;;;;;65.68;20.27;;;;;;;;;;5041917;28;20050;-80
2021/12/12 06:02:54;;;;;;;56.92;20.80;;;;;;;;;;5039616;28;20058;-80
2021/12/12 06:05:21;;;;;;;58.60;20.10;;;;;;;;;;5043040;28;20061;-81
2021/12/12 06:07:48;;;;;;;60.53;20.55;;;;;;;;;;5040279;28;20049;-80
2021/12/12 06:10:15;;;;;;;57.38;19.85;;;;;;;;;;5043295;28;20104;-80
2021/12/12 06:12:42;;;;;;;57.67;19.77;;;;;;;;;;5051730;28;20053;-80
2021/12/12 06:15:11;;;;;;;54.80;20.15;;;;;;;;;;5042263;28;20064;-80
2021/12/12 06:17:38;;;;;;;59.53;19.98;;;;;;;;;;5039503;28;20100;-81
2021/12/12 06:20:06;;;;;;;76.28;20.90;;;;;;;;;;5042208;28;20077;-80
2021/12/12 06:22:33;;;;;;;76.90;22.00;;;;;;;;;;5047192;28;20088;-81
2021/12/12 06:24:59;;;;;;;64.72;22.05;;;;;;;;;;5039397;28;20148;-81
2021/12/12 06:27:26;;;;;;;67.45;21.33;;;;;;;;;;5043051;28;20226;-81
2021/12/12 06:29:54;;;;;;;70.60;21.33;;;;;;;;;;5042484;28;20558;-80
2021/12/12 06:32:20;;;;;;;65.78;21.05;;;;;;;;;;5038978;28;20078;-80
2021/12/12 06:34:48;;;;;;;64.75;20.73;;;;;;;;;;5039950;28;20085;-80
2021/12/12 06:37:15;;;;;;;69.38;21.75;;;;;;;;;;5038883;28;20571;-80
2021/12/12 06:39:42;;;;;;;74.45;21.30;;;;;;;;;;5038552;28;20050;-80
2021/12/12 06:42:09;;;;;;;72.32;22.98;;;;;;;;;;5038864;28;20042;-80
2021/12/12 06:44:36;;;;;;;80.60;24.27;;;;;;;;;;5035776;28;20107;-81
2021/12/12 06:47:02;;;;;;;74.97;22.10;;;;;;;;;;5041627;28;20096;-80
2021/12/12 06:49:29;;;;;;;73.25;21.30;;;;;;;;;;5045382;28;20046;-80
2021/12/12 06:51:57;;;;;;;70.90;21.92;;;;;;;;;;5035976;28;20097;-81
2021/12/12 06:54:25;;;;;;;89.57;23.10;;;;;;;;;;5039378;28;20108;-80
2021/12/12 06:56:53;;;;;;;92.25;24.80;;;;;;;;;;5037980;28;20517;-80
2021/12/12 06:59:24;;;;;;;105.22;24.27;;;;;;;;;;5045226;28;20105;-80
2021/12/12 07:01:50;;;;;;;;;;;;;;;;;;5040312;28;20061;-80
2021/12/12 07:04:19;;;;;;;95.32;23.02;;;;;;;;;;5043220;28;47963;-80
2021/12/12 07:06:46;;;;;;;107.30;25.95;;;;;;;;;;5037235;28;20062;-80
2021/12/12 07:09:12;;;;;;;105.28;26.98;;;;;;;;;;5040841;28;20124;-80
2021/12/12 07:11:40;;;;;;;105.32;25.65;;;;;;;;;;5043833;28;20131;-81
2021/12/12 07:14:07;;;;;;;129.45;29.23;;;;;;;;;;5040996;28;20045;-81
2021/12/12 07:16:34;;;;;;;113.72;27.20;;;;;;;;;;5039025;28;20050;-80
2021/12/12 07:19:02;;;;;;;116.75;28.08;;;;;;;;;;5043254;28;20054;-80
2021/12/12 07:21:30;;;;;;;100.90;27.48;;;;;;;;;;5044737;28;20162;-80
2021/12/12 07:23:58;;;;;;;110.10;28.63;;;;;;;;;;5043593;28;20053;-80
2021/12/12 07:26:24;;;;;;;113.55;28.33;;;;;;;;;;5040211;28;20516;-80
2021/12/12 07:28:55;;;;;;;124.00;28.63;;;;;;;;;;5046887;28;20519;-80
2021/12/12 07:31:23;;;;;;;122.25;28.73;;;;;;;;;;5043374;28;20406;-80
2021/12/12 07:33:52;;;;;;;137.73;29.00;;;;;;;;;;5042104;28;20033;-80
2021/12/12 07:36:20;;;;;;;120.80;28.33;;;;;;;;;;5047498;28;20088;-80
2021/12/12 07:38:51;;;;;;;148.25;31.65;;;;;;;;;;5040627;28;20085;-80
2021/12/12 07:41:18;;;;;;;152.98;30.58;;;;;;;;;;5047716;28;20124;-80
2021/12/12 07:43:45;;;;;;;176.27;33.63;;;;;;;;;;5044942;28;20635;-80
2021/12/12 07:46:11;;;;;;;176.35;35.25;;;;;;;;;;5042638;28;20103;-80
2021/12/12 07:48:39;;;;;;;175.45;35.67;;;;;;;;;;5042622;28;20515;-79
2021/12/12 07:51:07;;;;;;;151.23;30.98;;;;;;;;;;5049257;28;20060;-79
2021/12/12 07:53:33;;;;;;;164.88;34.22;;;;;;;;;;5038843;28;20081;-80
2021/12/12 07:56:00;;;;;;;167.70;34.38;;;;;;;;;;5052101;28;20057;-80
2021/12/12 07:58:26;;;;;;;174.90;35.33;;;;;;;;;;5035752;28;20569;-80
2021/12/12 08:00:54;;;;;;;202.82;45.00;;;;;;;;;;5041453;28;20088;-80
2021/12/12 08:03:23;;;;;;;175.45;33.15;;;;;;;;;;5044089;28;20132;-80
2021/12/12 08:05:50;;;;;;;184.07;34.80;;;;;;;;;;5041137;28;20547;-80
2021/12/12 08:08:17;;;;;;;169.00;34.13;;;;;;;;;;5036257;28;20053;-80
2021/12/12 08:10:45;;;;;;;177.43;35.40;;;;;;;;;;5040254;28;20104;-80
2021/12/12 08:13:14;;;;;;;184.85;33.90;;;;;;;;;;5042179;28;20126;-80
2021/12/12 08:15:40;;;;;;;180.38;35.60;;;;;;;;;;5050320;28;20104;-80
2021/12/12 08:18:09;;;;;;;235.23;39.05;;;;;;;;;;5046853;28;20065;-80
2021/12/12 08:20:36;;;;;;;189.05;35.95;;;;;;;;;;5044759;28;20076;-80
2021/12/12 08:23:03;;;;;;;188.55;36.22;;;;;;;;;;5041701;28;20089;-80
2021/12/12 08:25:30;;;;;;;199.43;35.40;;;;;;;;;;5044130;28;20053;-80
2021/12/12 08:28:00;;;;;;;203.20;37.35;;;;;;;;;;5050639;28;20108;-81
2021/12/12 08:30:28;;;;;;;198.85;35.90;;;;;;;;;;5053493;28;20049;-80
2021/12/12 08:32:54;;;;;;;185.45;35.33;;;;;;;;;;5045266;28;20057;-80
2021/12/12 08:35:22;;;;;;;182.80;36.17;;;;;;;;;;5045665;28;20169;-80
2021/12/12 08:37:48;;;;;;;211.35;38.20;;;;;;;;;;5039517;28;20103;-81
2021/12/12 08:40:20;;;;;;;178.63;35.40;;;;;;;;;;5048417;28;20050;-81
2021/12/12 08:42:47;;;;;;;179.95;37.72;;;;;;;;;;5055768;28;20160;-81
2021/12/12 08:45:15;;;;;;;215.20;36.63;;;;;;;;;;5052113;28;20054;-81
2021/12/12 08:47:42;;;;;;;217.15;37.47;;;;;;;;;;5053317;28;20926;-81
2021/12/12 08:50:10;;;;;;;240.48;38.67;;;;;;;;;;5047531;28;20053;-80
2021/12/12 08:52:40;;;;;;;222.55;39.15;;;;;;;;;;5041173;28;20464;-81
2021/12/12 08:55:13;;;;;;;249.65;39.80;;;;;;;;;;5038401;28;20155;-80
2021/12/12 08:57:50;;;;;;;189.25;36.70;;;;;;;;;;5041854;28;20079;-81
2021/12/12 09:00:31;;;;;;;192.30;37.65;;;;;;;;;;5043350;28;20050;-80
2021/12/12 09:02:59;;;;;;;168.38;33.88;;;;;;;;;;5040369;28;20076;-81
2021/12/12 09:05:30;;;;;;;195.57;36.30;;;;;;;;;;5048484;28;20053;-81
2021/12/12 09:08:14;;;;;;;176.27;33.40;;;;;;;;;;5039230;28;20076;-81
2021/12/12 09:10:43;;;;;;;142.48;32.78;;;;;;;;;;5046469;28;20571;-80
2021/12/12 09:13:11;;;;;;;179.13;33.45;;;;;;;;;;5041325;28;20623;-81
2021/12/12 09:15:42;;;;;;;173.43;34.67;;;;;;;;;;5042965;28;20127;-80
2021/12/12 09:18:12;;;;;;;151.65;32.40;;;;;;;;;;5046004;28;20061;-81
2021/12/12 09:20:48;;;;;;;171.35;32.92;;;;;;;;;;5047208;28;20057;-79
2021/12/12 09:23:17;;;;;;;131.73;30.40;;;;;;;;;;5045496;28;20057;-81
2021/12/12 09:26:13;;;;;;;148.77;30.65;;;;;;;;;;5045941;28;20062;-80
2021/12/12 09:28:43;;;;;;;142.52;31.30;;;;;;;;;;5034663;28;20049;-81
2021/12/12 09:31:12;;;;;;;177.02;34.05;;;;;;;;;;5051920;28;20059;-79
2021/12/12 09:33:51;;;;;;;165.85;34.80;;;;;;;;;;5050086;28;20627;-81
2021/12/12 09:36:28;;;;;;;171.18;37.08;;;;;;;;;;5043536;28;20107;-81
2021/12/12 09:39:01;;;;;;;211.93;35.45;;;;;;;;;;5047606;28;20061;-81
2021/12/12 09:41:46;;;;;;;162.38;32.78;;;;;;;;;;5042113;28;20602;-81
2021/12/12 09:44:31;;;;;;;174.02;33.85;;;;;;;;;;5046501;28;20089;-79
2021/12/12 09:53:30;;;;;;;171.40;33.63;;;;;;;;;;4984764;28;20047;-80
2021/12/12 09:56:07;;;;;;;172.90;32.80;;;;;;;;;;5027564;28;20104;-79
2021/12/12 09:58:55;;;;;;;154.45;31.00;;;;;;;;;;5043256;28;20092;-79
2021/12/12 10:01:30;;;;;;;141.57;28.83;;;;;;;;;;5040984;28;20065;-81
2021/12/12 10:04:00;;;;;;;136.45;30.48;;;;;;;;;;5047620;28;20211;-80
2021/12/12 10:06:32;;;;;;;134.65;29.33;;;;;;;;;;5050209;28;20474;-79
2021/12/12 10:09:03;;;;;;;147.15;31.25;;;;;;;;;;5049181;28;20073;-80
2021/12/12 10:11:48;;;;;;;152.32;30.90;;;;;;;;;;5046963;28;20080;-79
2021/12/12 10:14:23;;;;;;;130.65;28.15;;;;;;;;;;5055720;28;20323;-79
2021/12/12 10:16:50;;;;;;;113.63;26.10;;;;;;;;;;5044827;28;20050;-78
2021/12/12 10:19:25;;;;;;;97.47;25.42;;;;;;;;;;5040858;28;20111;-81
2021/12/12 10:21:51;;;;;;;115.03;25.98;;;;;;;;;;5049382;28;20072;-81
2021/12/12 10:24:24;;;;;;;99.78;24.65;;;;;;;;;;5049866;28;20104;-81
2021/12/12 10:26:59;;;;;;;95.55;24.85;;;;;;;;;;5040875;28;20054;-80
2021/12/12 10:29:31;;;;;;;85.97;23.13;;;;;;;;;;5037277;28;20061;-80
2021/12/12 10:32:01;;;;;;;88.95;22.67;;;;;;;;;;5041405;28;20159;-80
2021/12/12 10:34:31;;;;;;;94.15;23.40;;;;;;;;;;5034498;28;20576;-81
2021/12/12 10:36:58;;;;;;;81.00;23.67;;;;;;;;;;5046096;28;20085;-79
2021/12/12 10:39:35;;;;;;;80.38;21.95;;;;;;;;;;5046020;28;20058;-80
2021/12/12 10:42:05;;;;;;;92.22;25.17;;;;;;;;;;5056510;28;20119;-80
2021/12/12 10:44:39;;;;;;;77.57;22.30;;;;;;;;;;5051373;28;20053;-81
2021/12/12 10:47:05;;;;;;;87.85;24.13;;;;;;;;;;5045504;28;20054;-80
2021/12/12 10:49:32;;;;;;;94.43;27.08;;;;;;;;;;5040860;28;20080;-78
2021/12/12 10:52:08;;;;;;;68.68;21.55;;;;;;;;;;5042113;28;20081;-78
2021/12/12 10:54:52;;;;;;;84.65;23.90;;;;;;;;;;5038697;28;20633;-78
2021/12/12 10:57:20;;;;;;;69.05;21.48;;;;;;;;;;5041331;28;20112;-78
2021/12/12 11:00:00;;;;;;;65.78;20.50;;;;;;;;;;5045461;28;20151;-79
2021/12/12 11:02:29;;;;;;;70.53;20.80;;;;;;;;;;5042128;28;20905;-80
2021/12/12 11:04:59;;;;;;;57.17;19.42;;;;;;;;;;5051113;28;20125;-80
2021/12/12 11:07:31;;;;;;;68.07;20.42;;;;;;;;;;5049147;28;20115;-79
2021/12/12 11:10:11;;;;;;;72.28;21.83;;;;;;;;;;5049450;28;20093;-78
2021/12/12 11:12:45;;;;;;;78.05;22.67;;;;;;;;;;5045708;28;20429;-79
2021/12/12 11:15:19;;;;;;;79.00;24.45;;;;;;;;;;5050012;28;20041;-78
2021/12/12 11:18:09;;;;;;;75.25;23.08;;;;;;;;;;5048941;28;20116;-80
2021/12/12 11:20:41;;;;;;;70.85;22.27;;;;;;;;;;5042306;28;20060;-80
2021/12/12 11:23:18;;;;;;;82.35;22.88;;;;;;;;;;5046209;28;20532;-78
2021/12/12 11:25:49;;;;;;;97.95;24.20;;;;;;;;;;5048720;28;20061;-78
2021/12/12 11:28:21;;;;;;;74.53;23.27;;;;;;;;;;5053362;28;20112;-80
2021/12/12 11:30:54;;;;;;;83.82;23.50;;;;;;;;;;5046807;28;20891;-80
2021/12/12 11:33:23;;;;;;;75.10;24.20;;;;;;;;;;5045312;28;20089;-80
2021/12/12 11:35:51;;;;;;;80.30;22.52;;;;;;;;;;5046837;28;20054;-80
2021/12/12 11:38:26;;;;;;;76.05;22.33;;;;;;;;;;5037495;28;20049;-79
2021/12/12 11:41:09;;;;;;;83.10;22.95;;;;;;;;;;5040943;28;20034;-79
2021/12/12 11:43:54;;;;;;;78.88;22.55;;;;;;;;;;5041720;28;20045;-79
2021/12/12 11:46:50;;;;;;;77.63;22.15;;;;;;;;;;5049997;28;20050;-79
2021/12/12 11:49:21;;;;;;;61.75;20.70;;;;;;;;;;5045100;28;20574;-79
2021/12/12 11:52:00;;;;;;;60.40;20.90;;;;;;;;;;5046575;28;20054;-78
2021/12/12 11:54:45;;;;;;;77.78;23.02;;;;;;;;;;5049367;28;20819;-80
2021/12/12 11:57:14;;;;;;;95.80;25.95;;;;;;;;;;5049556;28;20058;-79
2021/12/12 11:59:59;;;;;;;78.57;23.10;;;;;;;;;;5039636;28;20501;-79
2021/12/12 12:02:35;;;;;;;81.80;22.48;;;;;;;;;;5051304;28;20046;-80
2021/12/12 12:05:04;;;;;;;75.45;22.33;;;;;;;;;;5051253;28;20053;-80
2021/12/12 12:07:39;;;;;;;60.20;19.55;;;;;;;;;;5032360;28;20050;-79
2021/12/12 12:10:29;;;;;;;69.72;21.20;;;;;;;;;;5048265;28;20108;-80
2021/12/12 12:13:02;;;;;;;74.72;20.90;;;;;;;;;;5041022;28;20072;-80
2021/12/12 12:15:46;;;;;;;73.82;22.00;;;;;;;;;;5048149;28;20096;-80
2021/12/12 12:18:22;;;;;;;61.03;19.17;;;;;;;;;;5044512;28;20061;-79
2021/12/12 12:20:56;;;;;;;74.93;20.20;;;;;;;;;;5047892;28;20085;-78
2021/12/12 12:23:48;;;;;;;77.10;22.33;;;;;;;;;;5045258;28;20155;-80
2021/12/12 12:29:26;;;;;;;63.20;19.42;;;;;;;;;;5043371;28;20058;-79
2021/12/12 12:31:58;;;;;;;77.75;20.35;;;;;;;;;;5044880;28;20508;-79
2021/12/12 12:34:44;;;;;;;63.50;19.05;;;;;;;;;;5038885;28;20050;-80
2021/12/12 12:37:30;;;;;;;77.93;19.50;;;;;;;;;;5047457;28;20054;-80
2021/12/12 12:39:59;;;;;;;78.80;20.10;;;;;;;;;;5031518;28;20137;-79
2021/12/12 12:42:38;;;;;;;73.00;20.00;;;;;;;;;;5036784;28;20092;-79
2021/12/12 12:45:23;;;;;;;77.18;19.00;;;;;;;;;;5047779;28;20454;-78
2021/12/12 12:48:09;;;;;;;71.57;19.02;;;;;;;;;;5051516;28;20057;-79
2021/12/12 12:50:36;;;;;;;58.65;17.17;;;;;;;;;;5042710;28;20054;-80
2021/12/12 12:53:21;;;;;;;69.78;18.45;;;;;;;;;;5062041;28;20603;-80
2021/12/12 12:56:06;;;;;;;70.22;18.35;;;;;;;;;;5035815;28;20516;-79
2021/12/12 12:59:04;;;;;;;63.22;18.90;;;;;;;;;;5048587;28;20046;-80
2021/12/12 13:01:48;;;;;;;69.25;19.42;;;;;;;;;;5044158;28;20053;-79
2021/12/12 13:04:23;;;;;;;82.93;19.05;;;;;;;;;;5051151;28;20759;-79
2021/12/12 13:07:16;;;;;;;72.80;21.25;;;;;;;;;;5049994;28;20058;-77
2021/12/12 13:09:48;;;;;;;71.20;20.67;;;;;;;;;;5023246;28;20061;-79
2021/12/12 13:12:14;;;;;;;80.88;21.95;;;;;;;;;;5040916;28;20058;-78
2021/12/12 13:14:49;;;;;;;68.13;21.08;;;;;;;;;;5042698;28;20058;-80
2021/12/12 13:17:42;;;;;;;79.07;23.23;;;;;;;;;;5041317;28;20081;-80
2021/12/12 13:20:19;;;;;;;73.43;23.77;;;;;;;;;;5038262;28;20119;-79
2021/12/12 13:23:01;;;;;;;72.35;20.85;;;;;;;;;;5045793;28;20100;-79
2021/12/12 13:25:39;;;;;;;87.47;21.40;;;;;;;;;;5041931;28;20045;-80
2021/12/12 13:28:17;;;;;;;82.63;23.08;;;;;;;;;;5058147;28;20136;-80
2021/12/12 13:31:00;;;;;;;92.25;24.17;;;;;;;;;;5048156;28;20068;-78
2021/12/12 13:33:43;;;;;;;87.15;22.38;;;;;;;;;;5038985;28;20061;-80
2021/12/12 13:36:10;;;;;;;74.43;21.75;;;;;;;;;;5049651;28;20058;-78
2021/12/12 13:38:45;;;;;;;75.80;22.58;;;;;;;;;;5051656;28;20057;-79
2021/12/12 13:41:20;;;;;;;95.40;26.55;;;;;;;;;;5040346;28;20152;-80
2021/12/12 13:43:52;;;;;;;78.95;22.90;;;;;;;;;;5041116;28;20107;-78
2021/12/12 13:46:26;;;;;;;73.50;23.58;;;;;;;;;;5046898;28;20144;-78
2021/12/12 13:48:52;;;;;;;71.32;22.02;;;;;;;;;;5040414;28;20137;-79
2021/12/12 13:51:28;;;;;;;76.57;21.27;;;;;;;;;;5046022;28;20127;-80
2021/12/12 13:54:10;;;;;;;73.82;21.02;;;;;;;;;;5045092;28;20054;-80
2021/12/12 13:56:57;;;;;;;80.55;24.27;;;;;;;;;;5033453;28;20257;-80
2021/12/12 13:59:26;;;;;;;88.20;25.00;;;;;;;;;;5039393;28;20088;-80
2021/12/12 14:01:55;;;;;;;82.13;24.23;;;;;;;;;;5040836;28;20057;-80
2021/12/12 14:04:42;;;;;;;76.78;21.73;;;;;;;;;;5047896;28;20048;-79
2021/12/12 14:07:11;;;;;;;95.07;24.40;;;;;;;;;;5036236;28;20058;-79
2021/12/12 14:09:38;;;;;;;70.28;21.80;;;;;;;;;;5046302;28;20049;-80
2021/12/12 14:12:05;;;;;;;79.80;20.48;;;;;;;;;;5041168;28;20041;-78
2021/12/12 14:14:34;;;;;;;64.13;20.25;;;;;;;;;;5038800;28;20532;-79
2021/12/12 14:17:04;;;;;;;70.82;19.25;;;;;;;;;;5042393;28;20042;-78
2021/12/12 14:19:35;;;;;;;62.05;18.42;;;;;;;;;;5047830;28;20056;-80
2021/12/12 14:22:02;;;;;;;60.20;16.67;;;;;;;;;;5046459;28;20248;-79
2021/12/12 14:24:30;;;;;;;65.85;19.45;;;;;;;;;;5046778;28;20050;-78
2021/12/12 14:26:57;;;;;;;59.20;20.50;;;;;;;;;;5049701;28;20530;-79
2021/12/12 14:29:24;;;;;;;54.38;15.95;;;;;;;;;;5043645;28;20104;-78
2021/12/12 14:31:58;;;;;;;54.63;16.52;;;;;;;;;;5040783;28;20045;-78
2021/12/12 14:34:31;;;;;;;59.72;17.00;;;;;;;;;;5042884;28;20053;-80
2021/12/12 14:37:02;;;;;;;60.35;20.17;;;;;;;;;;5040029;28;20149;-79
2021/12/12 14:39:31;;;;;;;48.58;17.58;;;;;;;;;;5046918;28;20060;-79
2021/12/12 14:42:04;;;;;;;46.90;14.90;;;;;;;;;;5040541;28;20049;-79
2021/12/12 14:44:33;;;;;;;55.22;18.60;;;;;;;;;;5048055;28;20050;-79
2021/12/12 14:47:04;;;;;;;59.72;18.27;;;;;;;;;;5043741;28;20050;-80
2021/12/12 14:49:33;;;;;;;63.95;19.35;;;;;;;;;;5042010;28;20141;-77
2021/12/12 14:52:05;;;;;;;64.40;17.23;;;;;;;;;;5045138;28;20058;-78
2021/12/12 14:54:38;;;;;;;70.15;21.42;;;;;;;;;;5044103;28;20076;-78
2021/12/12 14:57:05;;;;;;;71.32;21.25;;;;;;;;;;5042813;28;20053;-79
2021/12/12 14:59:33;;;;;;;66.45;19.55;;;;;;;;;;5049482;28;21504;-79
2021/12/12 15:02:04;;;;;;;63.28;20.38;;;;;;;;;;5039380;28;20136;-80
2021/12/12 15:04:34;;;;;;;74.47;24.83;;;;;;;;;;5039236;28;20904;-77
2021/12/12 15:07:07;;;;;;;90.38;27.55;;;;;;;;;;5045346;28;20119;-80